Time;durP1;ratioP1;P1;durP2;ratioP2;P2;SDS_P1;SDS_P2;PMS_P1;PMS_P2;Temp;Humidity;BMP_temperature;BMP_pressure;BME280_temperature;BME280_humidity;BME280_pressure;Samples;Min_cycle;Max_cycle;Signal;HPM_P1;HPM_P2
2022/04/25 00:02:19;;;;;;;6.40;5.80;;;;;;;11.23;54.18;98927.14;1656466;86;21220;-75
2022/04/25 00:04:46;;;;;;;6.75;5.87;;;;;;;11.21;54.31;98923.73;1651989;86;21256;-75
2022/04/25 00:07:13;;;;;;;6.60;5.95;;;;;;;11.18;54.45;98915.54;1630397;87;21143;-75
2022/04/25 00:09:41;;;;;;;6.60;5.95;;;;;;;11.17;54.52;98909.02;1680281;84;21606;-74
2022/04/25 00:12:10;;;;;;;6.90;6.10;;;;;;;11.14;54.59;98910.85;1676537;84;21512;-74
2022/04/25 00:14:37;;;;;;;6.65;6.05;;;;;;;11.12;54.88;98911.86;1674223;84;21778;-74
2022/04/25 00:17:04;;;;;;;6.72;6.12;;;;;;;11.07;54.83;98914.70;1674024;84;20970;-75
2022/04/25 00:19:31;;;;;;;6.40;5.87;;;;;;;11.03;54.91;98913.15;1674858;84;22358;-74
2022/04/25 00:21:59;;;;;;;6.50;5.90;;;;;;;11.00;55.15;98906.70;1676715;84;21303;-75
2022/04/25 00:24:26;;;;;;;6.72;6.05;;;;;;;10.96;55.23;98906.44;1680458;83;21091;-74
2022/04/25 00:26:54;;;;;;;6.78;6.15;;;;;;;10.93;55.30;98917.13;1676224;84;21125;-75
2022/04/25 00:29:21;;;;;;;6.55;5.92;;;;;;;10.88;55.44;98915.17;1674521;84;21243;-75
2022/04/25 00:31:48;;;;;;;5.85;5.33;;;;;;;10.85;55.53;98916.63;1676426;84;21250;-75
2022/04/25 00:34:17;;;;;;;6.78;5.65;;;;;;;10.83;55.70;98918.48;1683013;84;21068;-74
2022/04/25 00:36:45;;;;;;;5.87;5.37;;;;;;;10.80;55.61;98915.98;1667326;84;21052;-74
2022/04/25 00:39:13;;;;;;;6.33;5.70;;;;;;;10.78;55.71;98919.99;1683501;84;21063;-74
2022/04/25 00:41:41;;;;;;;6.33;5.72;;;;;;;10.76;55.70;98913.48;1680079;84;20973;-74
2022/04/25 00:44:08;;;;;;;6.00;5.50;;;;;;;10.76;55.98;98904.27;1681232;84;21228;-75
2022/04/25 00:46:35;;;;;;;5.75;5.25;;;;;;;10.75;55.95;98910.44;1672266;84;21417;-75
2022/04/25 00:49:02;;;;;;;7.10;5.53;;;;;;;10.73;56.20;98905.72;1679657;84;21140;-75
2022/04/25 00:51:30;;;;;;;6.75;6.15;;;;;;;10.71;56.10;98900.99;1676902;84;21151;-74
2022/04/25 00:53:57;;;;;;;6.78;6.12;;;;;;;10.69;56.25;98892.33;1679309;84;21114;-74
2022/04/25 00:56:24;;;;;;;6.33;5.72;;;;;;;10.69;56.19;98894.95;1680304;84;21049;-74
2022/04/25 00:58:51;;;;;;;6.40;5.80;;;;;;;10.69;56.17;98891.01;1670778;84;21093;-75
2022/04/25 01:01:18;;;;;;;8.03;5.75;;;;;;;10.68;56.24;98880.08;1679684;84;21092;-74
2022/04/25 01:03:46;;;;;;;6.30;5.70;;;;;;;10.69;56.25;98874.34;1670977;84;21016;-75
2022/04/25 01:06:14;;;;;;;6.65;5.65;;;;;;;10.67;56.28;98874.41;1658746;85;21121;-76
2022/04/25 01:08:40;;;;;;;6.47;5.35;;;;;;;10.66;56.46;98875.36;1678063;84;21111;-74
2022/04/25 01:11:07;;;;;;;5.80;5.30;;;;;;;10.61;56.81;98869.45;1670582;85;21513;-74
2022/04/25 01:13:35;;;;;;;6.22;5.60;;;;;;;10.59;56.71;98873.91;1677062;84;21129;-74
2022/04/25 01:16:02;;;;;;;7.85;5.80;;;;;;;10.55;56.80;98864.45;1684772;84;21187;-75
2022/04/25 01:18:29;;;;;;;6.30;5.60;;;;;;;10.54;56.80;98866.24;1676917;84;21182;-75
2022/04/25 01:20:57;;;;;;;6.78;6.12;;;;;;;10.51;56.91;98858.95;1685910;84;21244;-74
2022/04/25 01:28:55;;;;;;;6.17;5.28;;;;;;;10.50;56.71;98850.19;1668500;84;21139;-75
2022/04/25 01:31:21;;;;;;;6.08;5.65;;;;;;;10.51;56.82;98855.01;1663828;84;21213;-73
2022/04/25 01:33:50;;;;;;;5.83;5.22;;;;;;;10.50;56.80;98850.66;1671021;84;21735;-73
2022/04/25 01:36:16;;;;;;;6.08;5.58;;;;;;;10.48;56.80;98844.15;1622140;86;21111;-74
2022/04/25 01:38:44;;;;;;;6.45;5.83;;;;;;;10.48;56.83;98847.25;1634881;86;20928;-74
2022/04/25 01:41:12;;;;;;;6.60;6.00;;;;;;;10.47;56.98;98845.53;1668928;84;21094;-75
2022/04/25 01:43:39;;;;;;;6.20;5.60;;;;;;;10.43;57.11;98849.23;1687397;83;21020;-74
2022/04/25 01:46:07;;;;;;;6.58;5.87;;;;;;;10.40;57.35;98840.53;1685690;84;21003;-74
2022/04/25 01:48:34;;;;;;;6.35;5.80;;;;;;;10.37;57.55;98840.70;1656793;85;21570;-74
2022/04/25 01:51:01;;;;;;;7.05;6.03;;;;;;;10.34;57.83;98846.09;1649453;85;22561;-74
2022/04/25 01:53:29;;;;;;;8.18;5.97;;;;;;;10.30;57.78;98847.09;1651398;84;21177;-74
2022/04/25 01:55:57;;;;;;;6.22;5.62;;;;;;;10.27;57.97;98846.38;1627251;87;21107;-75
2022/04/25 01:58:25;;;;;;;6.37;5.78;;;;;;;10.25;57.87;98849.08;1667499;84;21515;-74
2022/04/25 02:00:51;;;;;;;6.85;6.17;;;;;;;10.24;58.15;98859.22;1685657;84;21603;-74
2022/04/25 02:03:18;;;;;;;8.18;6.45;;;;;;;10.20;58.26;98850.62;1685677;84;21097;-74
2022/04/25 02:05:46;;;;;;;6.37;5.78;;;;;;;10.17;58.26;98843.30;1669280;84;21137;-74
2022/04/25 02:08:12;;;;;;;7.78;6.47;;;;;;;10.15;58.67;98849.09;1656202;85;21162;-75
2022/04/25 02:10:39;;;;;;;7.62;5.95;;;;;;;10.10;58.87;98844.50;1657212;86;21202;-74
2022/04/25 02:13:07;;;;;;;7.92;7.12;;;;;;;10.04;59.09;98849.56;1658441;86;21122;-74
2022/04/25 02:15:35;;;;;;;7.83;6.60;;;;;;;10.01;59.24;98851.85;1657721;85;21055;-74
2022/04/25 02:18:03;;;;;;;7.15;6.45;;;;;;;9.98;59.36;98851.13;1656725;85;21178;-75
2022/04/25 02:20:30;;;;;;;7.85;6.55;;;;;;;9.95;59.29;98852.14;1658344;85;21015;-75
2022/04/25 02:22:58;;;;;;;6.25;5.62;;;;;;;9.94;59.26;98850.88;1630328;87;21057;-74
2022/04/25 02:25:26;;;;;;;7.03;6.33;;;;;;;9.93;59.24;98851.33;1655236;86;21075;-74
2022/04/25 02:27:53;;;;;;;7.92;6.37;;;;;;;9.92;59.41;98848.32;1656249;86;21530;-74
2022/04/25 02:30:21;;;;;;;6.87;6.28;;;;;;;9.91;59.28;98841.34;1657405;85;21162;-74
2022/04/25 02:32:49;;;;;;;7.12;6.42;;;;;;;9.91;59.24;98843.97;1683090;84;21101;-74
2022/04/25 02:35:15;;;;;;;6.90;6.20;;;;;;;9.91;59.17;98845.28;1685996;84;21147;-74
2022/04/25 02:37:41;;;;;;;8.88;6.35;;;;;;;9.90;59.30;98844.91;1679235;84;21060;-74
2022/04/25 02:40:09;;;;;;;7.00;6.35;;;;;;;9.91;59.29;98840.03;1678558;84;21052;-75
2022/04/25 02:42:36;;;;;;;7.03;6.33;;;;;;;9.89;59.35;98835.78;1680492;84;21852;-74
2022/04/25 02:45:05;;;;;;;7.58;6.87;;;;;;;9.88;59.49;98829.64;1681179;84;21370;-75
2022/04/25 02:47:33;;;;;;;7.28;6.42;;;;;;;9.85;59.71;98829.77;1669495;84;20989;-75
2022/04/25 02:50:00;;;;;;;8.30;6.33;;;;;;;9.81;59.75;98825.11;1675608;84;21200;-74
2022/04/25 02:52:27;;;;;;;10.45;6.35;;;;;;;9.81;59.75;98832.15;1676171;84;21073;-75
2022/04/25 02:54:53;;;;;;;7.55;6.28;;;;;;;9.79;59.84;98833.99;1671064;84;21137;-74
2022/04/25 02:57:21;;;;;;;7.20;6.50;;;;;;;9.77;60.01;98830.59;1680024;84;21046;-74
2022/04/25 02:59:48;;;;;;;6.50;5.90;;;;;;;9.75;60.16;98832.39;1681639;84;21124;-75
2022/04/25 03:02:17;;;;;;;6.83;6.22;;;;;;;9.73;60.22;98839.50;1674767;84;21528;-74
2022/04/25 03:04:45;;;;;;;6.70;6.10;;;;;;;9.72;60.11;98837.80;1674553;84;21085;-75
2022/04/25 03:07:13;;;;;;;8.13;6.08;;;;;;;9.70;60.23;98836.55;1678155;84;21249;-74
2022/04/25 03:09:39;;;;;;;7.05;6.35;;;;;;;9.69;60.37;98828.73;1682079;84;21133;-73
2022/04/25 03:12:09;;;;;;;7.10;6.08;;;;;;;9.67;60.45;98822.23;1673413;84;32610;-75
2022/04/25 03:14:36;;;;;;;7.60;5.87;;;;;;;9.66;60.46;98819.20;1678529;84;22291;-74
2022/04/25 03:17:05;;;;;;;5.75;5.25;;;;;;;9.68;60.25;98812.10;1671624;84;22301;-75
2022/04/25 03:19:31;;;;;;;6.55;5.95;;;;;;;9.69;60.26;98807.72;1693284;83;21119;-75
2022/04/25 03:22:01;;;;;;;6.30;5.70;;;;;;;9.69;60.20;98803.31;1715420;82;21067;-73
2022/04/25 03:24:27;;;;;;;5.70;5.20;;;;;;;9.70;60.12;98800.22;1719284;82;21095;-75
2022/04/25 03:26:55;;;;;;;6.72;6.10;;;;;;;9.72;59.75;98798.41;1718389;83;21173;-73
2022/04/25 03:29:21;;;;;;;6.03;5.40;;;;;;;9.75;59.34;98804.81;1692410;83;21078;-74
2022/04/25 03:31:48;;;;;;;6.20;5.70;;;;;;;9.80;59.07;98796.27;1704515;83;21134;-74
2022/04/25 03:34:17;;;;;;;6.67;5.72;;;;;;;9.84;58.97;98792.61;1683009;83;21066;-74
2022/04/25 03:36:51;;;;;;;9.95;6.22;;;;;;;9.89;58.77;98794.58;1694605;82;21607;-75
2022/04/25 03:39:16;;;;;;;6.17;5.67;;;;;;;9.92;58.77;98786.57;1714744;83;21506;-74
2022/04/25 03:41:42;;;;;;;6.08;4.80;;;;;;;9.95;58.50;98778.55;1713488;82;21064;-74
2022/04/25 03:44:09;;;;;;;8.10;5.33;;;;;;;9.99;58.39;98781.90;1712655;83;21282;-75
2022/04/25 03:46:36;;;;;;;6.45;5.53;;;;;;;10.02;58.21;98771.26;1676159;83;21188;-74
2022/04/25 03:49:04;;;;;;;6.00;5.40;;;;;;;10.07;58.22;98773.66;1684795;84;21084;-74
2022/04/25 03:51:31;;;;;;;5.53;5.10;;;;;;;10.12;58.11;98772.98;1683716;84;21144;-74
2022/04/25 03:53:59;;;;;;;5.65;5.15;;;;;;;10.15;58.03;98779.43;1680998;84;21132;-75
2022/04/25 03:59:13;;;;;;;7.08;5.40;;;;;;;10.21;58.26;98775.22;1669054;84;21030;-75
2022/04/25 04:01:39;;;;;;;5.03;4.60;;;;;;;10.25;58.07;98790.39;1675100;84;21034;-73
2022/04/25 04:04:06;;;;;;;5.28;4.78;;;;;;;10.28;58.06;98786.31;1678839;84;21069;-74
2022/04/25 04:06:33;;;;;;;8.73;5.25;;;;;;;10.32;57.72;98787.47;1680858;84;20990;-74
2022/04/25 04:09:44;;;;;;;5.67;5.00;;;;;;;10.38;57.84;98786.32;1674950;84;20979;-74
2022/04/25 04:11:46;;;;;;;6.17;4.62;;;;;;;10.44;57.71;98772.02;1677328;84;21247;-74
2022/04/25 04:13:59;;;;;;;5.03;4.53;;;;;;;10.50;57.62;98784.91;1678589;83;21687;-74
2022/04/25 04:16:26;;;;;;;5.17;4.78;;;;;;;10.55;57.66;98792.13;1672955;84;21647;-75
2022/04/25 04:18:53;;;;;;;6.30;5.40;;;;;;;10.60;57.27;98794.92;1685466;84;21448;-74
2022/04/25 04:21:20;;;;;;;5.00;4.50;;;;;;;10.66;56.93;98784.59;1676465;84;21871;-74
2022/04/25 04:23:47;;;;;;;5.97;5.37;;;;;;;10.71;56.93;98773.39;1681387;84;21484;-74
2022/04/25 04:26:14;;;;;;;5.20;4.80;;;;;;;10.75;57.02;98772.30;1672011;84;21663;-75
2022/04/25 04:28:42;;;;;;;5.15;4.75;;;;;;;10.78;57.43;98769.53;1686966;84;21128;-73
2022/04/25 04:31:10;;;;;;;4.95;4.55;;;;;;;10.81;57.41;98767.67;1678161;83;21154;-75
2022/04/25 04:33:36;;;;;;;5.62;4.60;;;;;;;10.82;57.53;98755.77;1679001;84;21226;-75
2022/04/25 04:36:17;;;;;;;5.92;5.00;;;;;;;10.87;57.34;98758.19;1673808;84;21604;-77
2022/04/25 04:38:47;;;;;;;5.08;4.67;;;;;;;10.90;57.23;98756.25;1670427;84;21149;-74
2022/04/25 04:41:13;;;;;;;5.22;4.75;;;;;;;10.94;57.05;98763.09;1672070;84;21279;-74
2022/04/25 04:43:40;;;;;;;5.62;4.90;;;;;;;10.97;57.01;98760.75;1678708;84;21054;-73
2022/04/25 04:46:07;;;;;;;4.83;4.42;;;;;;;11.00;57.40;98766.35;1678606;84;21061;-74
2022/04/25 04:48:35;;;;;;;4.95;4.53;;;;;;;11.02;57.48;98768.44;1675310;84;21191;-75
2022/04/25 04:51:02;;;;;;;5.62;5.15;;;;;;;11.06;57.55;98768.22;1683065;84;21255;-74
2022/04/25 04:53:29;;;;;;;4.42;4.12;;;;;;;11.12;57.44;98757.84;1673257;84;21133;-73
2022/04/25 04:55:59;;;;;;;4.92;4.53;;;;;;;11.17;57.38;98758.95;1671641;84;21116;-75
2022/04/25 04:58:27;;;;;;;6.40;4.67;;;;;;;11.23;57.35;98753.35;1685537;84;21142;-74
2022/04/25 05:00:56;;;;;;;4.85;4.35;;;;;;;11.28;57.31;98750.03;1674998;84;21574;-75
2022/04/25 05:03:25;;;;;;;6.50;4.60;;;;;;;11.35;57.31;98751.45;1678693;84;21009;-75
2022/04/25 05:05:52;;;;;;;6.17;4.45;;;;;;;11.42;57.29;98754.16;1669146;84;21018;-74
2022/04/25 05:08:20;;;;;;;5.67;4.70;;;;;;;11.50;57.27;98749.35;1666654;84;21135;-74
2022/04/25 05:10:48;;;;;;;10.43;4.92;;;;;;;11.59;57.02;98747.19;1685299;84;21707;-74
2022/04/25 05:13:16;;;;;;;5.10;4.50;;;;;;;11.67;57.13;98751.13;1679880;84;21691;-74
2022/04/25 05:15:42;;;;;;;6.70;4.78;;;;;;;11.73;56.99;98743.36;1687371;84;21060;-75
2022/04/25 05:18:10;;;;;;;8.80;4.53;;;;;;;11.81;56.84;98747.77;1678348;84;21041;-74
2022/04/25 05:20:38;;;;;;;8.10;4.70;;;;;;;11.88;56.75;98756.20;1680588;84;21021;-74
2022/04/25 05:23:10;;;;;;;8.78;4.60;;;;;;;11.93;56.77;98747.62;1686179;83;22352;-75
2022/04/25 05:25:38;;;;;;;6.60;4.78;;;;;;;12.00;56.71;98752.98;1696231;82;21056;-75
2022/04/25 05:28:05;;;;;;;6.15;4.40;;;;;;;12.06;56.72;98754.44;1699399;82;21118;-74
2022/04/25 05:30:34;;;;;;;9.40;5.10;;;;;;;12.14;56.73;98759.28;1713465;82;21130;-75
2022/04/25 05:33:02;;;;;;;5.53;4.85;;;;;;;12.21;56.72;98754.93;1709578;82;21048;-74
2022/04/25 05:35:31;;;;;;;7.42;4.75;;;;;;;12.28;56.56;98747.54;1692877;83;21118;-74
2022/04/25 05:37:57;;;;;;;5.08;4.28;;;;;;;12.36;56.54;98743.18;1693034;83;21000;-74
2022/04/25 05:40:26;;;;;;;5.10;4.60;;;;;;;12.44;56.54;98748.90;1671766;84;21582;-74
2022/04/25 05:42:54;;;;;;;8.83;5.12;;;;;;;12.52;56.50;98746.66;1675790;84;21612;-74
2022/04/25 05:45:24;;;;;;;7.90;5.15;;;;;;;12.59;56.37;98734.86;1671326;83;21658;-74
2022/04/25 05:47:54;;;;;;;5.08;4.67;;;;;;;12.69;56.44;98725.09;1694046;82;21809;-75
2022/04/25 05:53:06;;;;;;;;;;;;;;;12.88;56.28;98712.56;1681851;83;21125;-73
2022/04/25 05:55:34;;;;;;;13.05;5.08;;;;;;;13.00;56.31;98711.86;1647130;85;20201;-75
2022/04/25 05:58:02;;;;;;;7.97;4.45;;;;;;;13.09;56.27;98703.02;1651972;84;21084;-75
2022/04/25 06:00:31;;;;;;;5.47;4.55;;;;;;;13.20;56.41;98701.94;1686376;84;22210;-74
2022/04/25 06:02:58;;;;;;;10.98;4.60;;;;;;;13.30;56.44;98700.94;1631213;86;21004;-74
2022/04/25 06:05:27;;;;;;;6.12;4.53;;;;;;;13.41;56.66;98696.36;1627604;87;21044;-74
2022/04/25 06:07:56;;;;;;;8.50;4.92;;;;;;;13.52;57.02;98696.09;1658530;85;21213;-74
2022/04/25 06:10:23;;;;;;;5.85;5.22;;;;;;;13.64;56.90;98690.54;1655729;84;21182;-75
2022/04/25 06:12:52;;;;;;;7.33;5.00;;;;;;;13.77;56.67;98688.47;1668549;84;21257;-74
2022/04/25 06:15:24;;;;;;;9.40;5.12;;;;;;;13.90;56.83;98690.73;1684935;84;21041;-74
2022/04/25 06:17:55;;;;;;;10.45;5.20;;;;;;;14.00;56.64;98693.67;1672263;84;21111;-75
2022/04/25 06:20:23;;;;;;;7.20;4.55;;;;;;;14.12;56.83;98691.13;1658323;86;21086;-75
2022/04/25 06:22:58;;;;;;;6.37;5.03;;;;;;;14.28;57.15;98684.38;1656539;86;21114;-73
2022/04/25 06:25:26;;;;;;;8.45;5.05;;;;;;;14.41;56.97;98683.14;1652676;86;21166;-74
2022/04/25 06:27:54;;;;;;;7.03;4.65;;;;;;;14.57;56.97;98684.31;1622621;87;21122;-75
2022/04/25 06:30:23;;;;;;;16.80;4.95;;;;;;;14.71;56.54;98683.48;1627822;87;21098;-75
2022/04/25 06:32:52;;;;;;;8.30;4.62;;;;;;;14.85;56.35;98681.25;1629818;87;21064;-73
2022/04/25 06:35:20;;;;;;;10.23;5.22;;;;;;;14.98;56.24;98669.38;1630506;87;21134;-74
2022/04/25 06:37:47;;;;;;;6.40;4.62;;;;;;;15.12;56.11;98669.78;1655822;86;21861;-74
2022/04/25 06:40:14;;;;;;;5.28;4.75;;;;;;;15.26;55.93;98667.52;1657659;84;21130;-74
2022/04/25 06:42:42;;;;;;;9.18;5.10;;;;;;;15.38;55.71;98671.98;1654818;86;21086;-74
2022/04/25 06:45:09;;;;;;;12.13;5.10;;;;;;;15.52;55.45;98661.78;1628258;87;21209;-75
2022/04/25 06:47:37;;;;;;;8.43;5.22;;;;;;;15.63;55.51;98665.00;1628625;87;21592;-74
2022/04/25 06:50:05;;;;;;;8.33;4.85;;;;;;;15.74;55.33;98663.80;1638674;85;21153;-73
2022/04/25 06:52:33;;;;;;;6.20;4.47;;;;;;;15.87;55.23;98654.06;1649233;86;21015;-73
2022/04/25 06:55:01;;;;;;;8.38;4.75;;;;;;;15.96;55.30;98654.72;1636327;86;21028;-74
2022/04/25 06:57:30;;;;;;;5.17;3.98;;;;;;;16.07;55.27;98651.33;1634492;86;21110;-73
2022/04/25 06:59:56;;;;;;;7.45;4.70;;;;;;;16.19;55.15;98650.05;1651916;85;21602;-74
2022/04/25 07:02:23;;;;;;;6.92;4.15;;;;;;;16.30;55.00;98640.36;1670878;84;21492;-73
2022/04/25 07:04:51;;;;;;;7.58;4.33;;;;;;;16.40;55.20;98644.53;1657753;85;21603;-74
2022/04/25 07:07:17;;;;;;;7.58;4.80;;;;;;;16.52;54.86;98637.48;1658600;84;22497;-73
2022/04/25 07:09:45;;;;;;;8.55;5.15;;;;;;;16.62;54.62;98629.20;1671663;84;21156;-74
2022/04/25 07:12:13;;;;;;;8.25;4.50;;;;;;;16.73;53.98;98632.41;1682637;84;21081;-74
2022/04/25 07:14:40;;;;;;;5.58;4.33;;;;;;;16.82;54.22;98634.86;1670452;84;21148;-74
2022/04/25 07:17:09;;;;;;;9.05;4.60;;;;;;;16.90;54.12;98625.87;1673758;84;21614;-73
2022/04/25 07:19:39;;;;;;;8.58;4.35;;;;;;;16.92;53.55;98631.91;1669351;84;22283;-74
2022/04/25 07:30:20;;;;;;;;;;;;;;;17.17;53.36;98618.94;1678179;84;21073;-74
2022/04/25 07:32:47;;;;;;;12.45;4.28;;;;;;;17.23;53.59;98624.27;1681631;84;20508;-74
2022/04/25 07:35:13;;;;;;;12.53;4.83;;;;;;;17.30;53.31;98617.99;1639358;84;21150;-73
2022/04/25 07:37:42;;;;;;;10.65;5.15;;;;;;;17.34;53.14;98613.66;1655638;84;21049;-74
2022/04/25 07:40:09;;;;;;;13.48;5.37;;;;;;;17.40;53.46;98614.98;1658614;84;21215;-74
2022/04/25 07:42:39;;;;;;;8.73;4.87;;;;;;;17.44;53.33;98608.48;1671657;84;21653;-73
2022/04/25 07:45:08;;;;;;;8.60;4.67;;;;;;;17.47;52.98;98608.25;1682441;84;21633;-74
2022/04/25 07:47:36;;;;;;;8.55;4.35;;;;;;;17.48;52.88;98603.77;1659577;84;21115;-74
2022/04/25 07:50:03;;;;;;;7.72;4.20;;;;;;;17.49;52.92;98603.66;1664798;84;21148;-73
2022/04/25 07:52:30;;;;;;;4.42;4.03;;;;;;;17.50;52.82;98598.70;1629900;87;21689;-73
2022/04/25 07:54:57;;;;;;;7.85;4.25;;;;;;;17.54;52.91;98593.50;1676396;84;21180;-73
2022/04/25 07:57:23;;;;;;;5.50;3.85;;;;;;;17.61;52.91;98599.19;1668524;84;21153;-74
2022/04/25 07:59:51;;;;;;;4.67;3.47;;;;;;;17.69;52.44;98591.45;1676643;84;21216;-74
2022/04/25 08:02:20;;;;;;;6.60;3.60;;;;;;;17.74;52.56;98602.58;1679955;84;21126;-74
2022/04/25 08:04:47;;;;;;;5.15;3.75;;;;;;;17.81;52.13;98611.76;1678725;84;22096;-72
2022/04/25 08:07:13;;;;;;;9.23;3.60;;;;;;;17.85;52.03;98619.02;1682770;84;21077;-75
2022/04/25 08:09:42;;;;;;;24.02;4.35;;;;;;;17.91;52.20;98627.05;1680385;84;21108;-74
2022/04/25 08:18:01;;;;;;;5.58;3.70;;;;;;;17.96;52.06;98619.54;1677904;84;21565;-73
2022/04/25 08:20:30;;;;;;;4.08;3.45;;;;;;;18.05;51.72;98617.46;1678625;84;21163;-73
2022/04/25 08:22:57;;;;;;;12.80;4.42;;;;;;;18.14;51.55;98619.87;1670650;84;21533;-74
2022/04/25 08:25:27;;;;;;;9.88;3.00;;;;;;;18.23;51.76;98618.30;1677727;84;21061;-74
2022/04/25 08:27:55;;;;;;;5.15;2.87;;;;;;;18.33;50.92;98611.26;1682524;84;21045;-74
2022/04/25 08:30:23;;;;;;;7.30;3.17;;;;;;;18.39;50.83;98616.06;1682296;84;21057;-74
2022/04/25 08:32:51;;;;;;;6.22;3.15;;;;;;;18.44;50.29;98621.89;1682060;84;21069;-75
2022/04/25 08:35:21;;;;;;;6.37;2.80;;;;;;;18.43;50.54;98618.86;1681236;84;21096;-73
2022/04/25 08:37:48;;;;;;;2.98;2.67;;;;;;;18.42;50.76;98621.15;1680589;84;21120;-72
2022/04/25 08:40:14;;;;;;;5.60;2.62;;;;;;;18.47;50.65;98618.95;1678466;84;21116;-73
2022/04/25 08:42:43;;;;;;;8.60;2.70;;;;;;;18.56;50.66;98623.55;1678667;84;21133;-73
2022/04/25 08:45:12;;;;;;;4.70;2.90;;;;;;;18.64;50.01;98616.23;1673268;84;21105;-74
2022/04/25 08:47:57;;;;;;;6.62;3.10;;;;;;;18.71;49.92;98604.59;1674947;84;21152;-75
2022/04/25 08:50:24;;;;;;;;;;;;;;;18.80;50.00;98602.51;1677799;84;21076;-73
2022/04/25 08:52:53;;;;;;;6.42;3.02;;;;;;;18.97;49.79;98608.28;1679002;84;20478;-73
2022/04/25 08:55:21;;;;;;;6.97;2.87;;;;;;;19.09;49.35;98609.91;1662517;84;21024;-74
2022/04/25 08:57:51;;;;;;;6.80;2.52;;;;;;;19.21;48.76;98596.86;1678116;84;21258;-74
2022/04/25 09:00:17;;;;;;;4.67;3.17;;;;;;;19.31;48.53;98597.77;1677220;84;21132;-76
2022/04/25 09:02:47;;;;;;;5.85;2.85;;;;;;;19.40;48.23;98599.28;1684593;84;21189;-74
2022/04/25 09:05:17;;;;;;;9.43;3.22;;;;;;;19.44;48.42;98617.57;1679316;84;21095;-73
2022/04/25 09:07:44;;;;;;;3.58;3.30;;;;;;;19.38;49.00;98623.92;1670098;84;21817;-74
2022/04/25 09:10:14;;;;;;;5.45;3.40;;;;;;;19.24;50.07;98617.94;1676396;84;21009;-74
2022/04/25 09:12:43;;;;;;;7.28;3.58;;;;;;;19.16;49.83;98628.91;1678723;84;21047;-74
2022/04/25 09:15:10;;;;;;;5.62;4.30;;;;;;;19.04;50.43;98638.78;1677633;84;21207;-73
2022/04/25 09:17:38;;;;;;;6.65;4.45;;;;;;;18.87;50.81;98638.36;1674024;84;21167;-74
2022/04/25 09:20:07;;;;;;;8.35;3.77;;;;;;;18.72;50.93;98629.78;1677892;84;21061;-74
2022/04/25 09:22:39;;;;;;;7.60;4.30;;;;;;;18.71;51.36;98651.22;1677413;84;21108;-74
2022/04/25 09:25:11;;;;;;;5.58;4.05;;;;;;;18.71;51.40;98651.22;1681649;83;21060;-74
2022/04/25 09:27:38;;;;;;;4.37;4.00;;;;;;;18.63;51.24;98653.69;1701582;83;21008;-73
2022/04/25 09:30:18;;;;;;;9.05;4.40;;;;;;;18.57;51.97;98646.53;1700524;83;21126;-74
2022/04/25 09:32:47;;;;;;;7.58;4.10;;;;;;;18.60;51.67;98637.95;1698808;83;21777;-74
2022/04/25 09:35:37;;;;;;;8.50;5.28;;;;;;;18.61;51.80;98644.49;1712945;83;21046;-74
2022/04/25 09:38:04;;;;;;;9.70;4.62;;;;;;;18.57;51.97;98651.86;1704208;83;21026;-74
2022/04/25 09:40:34;;;;;;;7.62;4.62;;;;;;;18.48;51.98;98651.79;1682802;83;21165;-74
2022/04/25 09:43:14;;;;;;;6.50;4.17;;;;;;;18.42;52.02;98646.95;1672607;84;21172;-74
2022/04/25 09:45:44;;;;;;;7.25;4.65;;;;;;;18.41;52.56;98643.45;1641030;85;21549;-73
2022/04/25 09:48:16;;;;;;;9.38;4.28;;;;;;;18.48;52.41;98648.62;1625617;87;22476;-74
2022/04/25 09:50:59;;;;;;;5.92;4.40;;;;;;;18.51;52.53;98642.22;1653572;84;22067;-75
2022/04/25 09:53:50;;;;;;;5.53;4.40;;;;;;;18.51;52.53;98642.22;1614224;87;21150;-75
2022/04/25 09:56:21;;;;;;;5.97;4.80;;;;;;;18.47;53.02;98632.77;1647510;85;21168;-74
2022/04/25 09:59:08;;;;;;;3.52;3.12;;;;;;;18.36;52.84;98641.15;1645969;85;21175;-74
2022/04/25 10:01:40;;;;;;;9.58;3.80;;;;;;;18.29;52.91;98649.73;1660878;85;21095;-75
2022/04/25 10:04:30;;;;;;;6.20;4.75;;;;;;;18.17;52.72;98647.12;1645922;85;21166;-75
2022/04/25 10:07:00;;;;;;;7.17;4.60;;;;;;;18.04;53.45;98652.19;1648326;85;21078;-75
2022/04/25 10:09:32;;;;;;;9.90;4.42;;;;;;;17.94;54.00;98656.08;1648094;85;22104;-74
2022/04/25 10:12:00;;;;;;;6.90;4.45;;;;;;;17.87;54.09;98645.07;1646406;85;21250;-74
2022/04/25 10:14:27;;;;;;;8.45;4.03;;;;;;;17.80;54.22;98652.66;1648172;85;21161;-74
2022/04/25 10:16:56;;;;;;;7.60;4.03;;;;;;;17.73;54.77;98651.42;1637304;85;21039;-75
2022/04/25 10:19:26;;;;;;;4.85;3.87;;;;;;;17.70;54.73;98649.48;1647182;85;21119;-75
2022/04/25 10:21:53;;;;;;;8.00;4.40;;;;;;;17.68;55.03;98654.92;1677702;84;21163;-75
2022/04/25 10:24:20;;;;;;;11.35;5.30;;;;;;;17.72;54.83;98648.88;1678788;84;21149;-75
2022/04/25 10:26:50;;;;;;;9.68;4.72;;;;;;;17.75;54.83;98646.85;1665476;84;21067;-73
2022/04/25 10:29:24;;;;;;;5.97;4.22;;;;;;;17.78;54.92;98654.56;1682752;84;21128;-74
2022/04/25 10:31:50;;;;;;;9.28;4.87;;;;;;;17.82;54.28;98648.05;1674676;84;21127;-75
2022/04/25 10:34:18;;;;;;;8.60;4.70;;;;;;;17.88;54.76;98651.23;1682555;84;21366;-74
2022/04/25 10:36:47;;;;;;;7.42;4.22;;;;;;;17.97;54.30;98643.84;1667174;85;21260;-74
2022/04/25 10:39:21;;;;;;;11.15;4.60;;;;;;;18.06;54.20;98647.12;1677035;84;21465;-75
2022/04/25 10:44:50;;;;;;;8.30;4.33;;;;;;;18.32;53.56;98646.84;1673602;84;21092;-75
2022/04/25 10:47:21;;;;;;;7.92;4.65;;;;;;;18.53;52.64;98645.11;1672796;84;21147;-75
2022/04/25 10:49:59;;;;;;;10.40;4.90;;;;;;;18.72;53.03;98646.27;1674871;84;22191;-75
2022/04/25 10:52:53;;;;;;;9.60;5.05;;;;;;;18.92;51.72;98634.82;1676227;84;21557;-75
2022/04/25 10:55:36;;;;;;;6.22;4.47;;;;;;;19.08;51.28;98644.20;1672571;84;21005;-75
2022/04/25 10:58:08;;;;;;;8.58;4.28;;;;;;;19.18;50.28;98649.14;1688091;84;21027;-75
2022/04/25 11:00:45;;;;;;;5.80;4.33;;;;;;;19.16;49.57;98645.73;1678571;84;21602;-75
2022/04/25 11:03:29;;;;;;;7.87;4.55;;;;;;;19.18;49.53;98647.81;1678958;84;21025;-74
2022/04/25 11:06:01;;;;;;;9.35;4.42;;;;;;;19.33;50.14;98650.14;1671238;84;21786;-75
2022/04/25 11:08:31;;;;;;;5.83;3.62;;;;;;;19.44;49.39;98639.41;1673443;84;21566;-75
2022/04/25 11:11:04;;;;;;;12.85;5.42;;;;;;;19.48;49.25;98643.50;1667270;84;21120;-74
2022/04/25 11:13:56;;;;;;;9.17;3.73;;;;;;;19.47;49.34;98652.49;1678884;84;21109;-74
2022/04/25 11:16:24;;;;;;;12.95;4.42;;;;;;;19.47;49.19;98648.50;1671635;84;22082;-75
2022/04/25 11:19:21;;;;;;;10.50;4.37;;;;;;;19.42;49.11;98651.55;1680391;84;21123;-74
2022/04/25 11:21:53;;;;;;;9.05;3.92;;;;;;;19.43;48.54;98644.37;1675561;84;21103;-75
2022/04/25 11:24:35;;;;;;;13.60;4.10;;;;;;;19.35;49.12;98646.84;1680262;84;21556;-74
2022/04/25 11:27:11;;;;;;;8.83;4.22;;;;;;;19.28;49.68;98659.39;1678267;84;21018;-75
2022/04/25 11:29:45;;;;;;;8.25;4.05;;;;;;;19.20;49.69;98657.86;1682338;84;21110;-74
2022/04/25 11:32:35;;;;;;;10.68;4.35;;;;;;;19.14;49.64;98650.86;1676740;84;21663;-76
2022/04/25 11:35:01;;;;;;;13.38;6.72;;;;;;;19.06;49.87;98655.02;1678778;83;22196;-74
2022/04/25 11:37:32;;;;;;;12.33;4.70;;;;;;;19.06;50.00;98658.15;1647905;84;21069;-73
2022/04/25 11:40:04;;;;;;;10.30;4.53;;;;;;;19.07;50.23;98655.36;1668414;84;21455;-74
2022/04/25 11:42:34;;;;;;;6.35;4.05;;;;;;;19.05;50.43;98661.81;1651409;84;21246;-75
2022/04/25 11:45:01;;;;;;;10.15;4.28;;;;;;;19.01;50.06;98657.69;1671254;84;21615;-75
2022/04/25 11:47:31;;;;;;;9.38;4.37;;;;;;;18.96;50.54;98661.23;1683960;84;21521;-76
2022/04/25 11:50:00;;;;;;;10.08;4.87;;;;;;;18.93;50.79;98661.84;1675477;83;21478;-75
2022/04/25 11:52:29;;;;;;;9.35;4.72;;;;;;;18.94;50.90;98654.19;1683184;84;21033;-75
2022/04/25 11:54:56;;;;;;;8.08;4.30;;;;;;;18.97;50.90;98646.94;1673442;84;21116;-76
2022/04/25 11:57:25;;;;;;;10.95;4.80;;;;;;;18.97;50.76;98642.44;1677280;84;21050;-76
2022/04/25 12:00:10;;;;;;;12.85;5.12;;;;;;;19.01;50.24;98635.03;1679345;84;22089;-76
2022/04/25 12:02:39;;;;;;;19.90;8.83;;;;;;;19.05;50.09;98631.16;1680309;84;21655;-76
2022/04/25 12:05:07;;;;;;;11.65;5.80;;;;;;;19.14;50.28;98637.52;1675371;84;21092;-74
2022/04/25 12:07:36;;;;;;;14.45;5.92;;;;;;;19.21;49.65;98636.02;1679072;84;21275;-75
2022/04/25 12:15:40;;;;;;;6.87;4.28;;;;;;;19.28;49.57;98632.72;1676622;84;21069;-76
2022/04/25 12:18:28;;;;;;;8.85;3.80;;;;;;;19.35;49.28;98631.71;1675040;84;21171;-75